KBED/BED METAR and TAF weather

Enter ICAO airport designator
Station Type Date Time Source
KBED METAR 2019/10/18 06:51 UTC NOAA

KBED 180651Z AUTO 25010KT 10SM BKN044 11/03 A2948 RMK AO2 SLP995 T01060033


Station Type Date Time Source
KBED Decoded METAR 2019/10/18 06:51 UTC NOAA

BEDFORD HANSCOM FIELD, MA, United States (KBED) 42-28N 071-18W 50M
Oct 18, 2019 - 02:51 AM EDT / 2019.10.18 0651 UTC
Wind: from the WSW (250 degrees) at 12 MPH (10 KT):0
Visibility: 10 mile(s):0
Sky conditions: mostly cloudy
Temperature: 51.1 F (10.6 C)
Dew Point: 37.9 F (3.3 C)
Relative Humidity: 60%
Pressure (altimeter): 29.48 in. Hg (998 hPa)
ob: KBED 180651Z AUTO 25010KT 10SM BKN044 11/03 A2948 RMK AO2 SLP995 T01060033
cycle: 7

Station Type Date Time Source
KBED TAF 2019/10/18 06:36 UTC NOAA

TAF
AMD KBED 180531Z 1806/1906 28008G19KT P6SM BKN040
FM181500 30010G22KT P6SM SCT040
FM182000 31009KT P6SM SCT040

Example: see airport list